Terminal Aerodrome Forecast
Issued by NWS Quad Cities IA IL

Home | Current Version | Previous Version | Text Only | Print | Product List | Glossary On
Versions: 1 2 3 4 5 6 7 8 9 10 11 12 13 14 15
000
FTUS43 KDVN 282332
TAFDBQ
TAF
KDBQ 282332Z 2900/2924 25006KT P6SM BKN200
     FM290700 30008KT P6SM BKN060 BKN200
     FM291000 32008KT P6SM SCT060 SCT250
     FM291700 31012G17KT P6SM SCT060=

USA.gov is the U.S. government's official web portal to all federal, state and local government web resources and services.